sensor_id;sensor_type;location;lat;lon;timestamp;pressure;altitude;pressure_sealevel;temperature;humidity
21361;BME280;10839;43.206;23.550;2023-04-08T00:01:59;97312.81;;;4.54;100.00
21361;BME280;10839;43.206;23.550;2023-04-08T00:04:25;97324.34;;;4.37;100.00
21361;BME280;10839;43.206;23.550;2023-04-08T00:06:51;97318.78;;;4.31;100.00
21361;BME280;10839;43.206;23.550;2023-04-08T00:09:17;97310.72;;;4.40;100.00
21361;BME280;10839;43.206;23.550;2023-04-08T00:11:43;97322.56;;;4.28;100.00
21361;BME280;10839;43.206;23.550;2023-04-08T00:14:08;97320.91;;;4.27;100.00
21361;BME280;10839;43.206;23.550;2023-04-08T00:16:34;97328.59;;;4.30;100.00
21361;BME280;10839;43.206;23.550;2023-04-08T00:19:00;97328.22;;;4.25;100.00
21361;BME280;10839;43.206;23.550;2023-04-08T00:21:26;97321.53;;;4.39;100.00
21361;BME280;10839;43.206;23.550;2023-04-08T00:23:52;97326.69;;;4.40;100.00
21361;BME280;10839;43.206;23.550;2023-04-08T00:26:18;97328.03;;;4.44;100.00
21361;BME280;10839;43.206;23.550;2023-04-08T00:28:45;97325.16;;;4.55;100.00
21361;BME280;10839;43.206;23.550;2023-04-08T00:31:11;97336.03;;;4.44;100.00
21361;BME280;10839;43.206;23.550;2023-04-08T00:33:37;97322.97;;;4.33;100.00
21361;BME280;10839;43.206;23.550;2023-04-08T00:36:02;97323.34;;;4.38;100.00
21361;BME280;10839;43.206;23.550;2023-04-08T00:38:28;97328.56;;;4.48;100.00
21361;BME280;10839;43.206;23.550;2023-04-08T00:40:56;97322.25;;;4.31;100.00
21361;BME280;10839;43.206;23.550;2023-04-08T00:43:23;97317.09;;;4.47;100.00
21361;BME280;10839;43.206;23.550;2023-04-08T00:45:48;97334.13;;;4.54;100.00
21361;BME280;10839;43.206;23.550;2023-04-08T00:48:15;97314.06;;;4.25;100.00
21361;BME280;10839;43.206;23.550;2023-04-08T00:50:44;97320.75;;;4.46;100.00
21361;BME280;10839;43.206;23.550;2023-04-08T00:53:17;97320.69;;;4.56;100.00
21361;BME280;10839;43.206;23.550;2023-04-08T00:55:44;97310.03;;;4.56;100.00
21361;BME280;10839;43.206;23.550;2023-04-08T00:58:10;97326.38;;;4.43;100.00
21361;BME280;10839;43.206;23.550;2023-04-08T01:00:39;97326.38;;;4.43;100.00
21361;BME280;10839;43.206;23.550;2023-04-08T01:03:26;97324.72;;;4.42;100.00
21361;BME280;10839;43.206;23.550;2023-04-08T01:06:03;97328.66;;;4.38;100.00
21361;BME280;10839;43.206;23.550;2023-04-08T01:08:34;97325.75;;;4.49;100.00
21361;BME280;10839;43.206;23.550;2023-04-08T01:11:05;97323.94;;;4.67;100.00
21361;BME280;10839;43.206;23.550;2023-04-08T01:13:39;97320.06;;;4.44;100.00
21361;BME280;10839;43.206;23.550;2023-04-08T01:16:09;97320.28;;;4.68;100.00
21361;BME280;10839;43.206;23.550;2023-04-08T01:18:37;97322.78;;;4.70;100.00
21361;BME280;10839;43.206;23.550;2023-04-08T01:21:04;97311.06;;;4.80;100.00
21361;BME280;10839;43.206;23.550;2023-04-08T01:23:41;97326.22;;;4.62;100.00
21361;BME280;10839;43.206;23.550;2023-04-08T01:26:20;97324.00;;;4.58;100.00
21361;BME280;10839;43.206;23.550;2023-04-08T01:28:49;97323.63;;;4.53;100.00
21361;BME280;10839;43.206;23.550;2023-04-08T01:31:17;97322.81;;;4.35;100.00
21361;BME280;10839;43.206;23.550;2023-04-08T01:33:45;97320.59;;;4.30;100.00
21361;BME280;10839;43.206;23.550;2023-04-08T01:36:13;97324.34;;;4.37;100.00
21361;BME280;10839;43.206;23.550;2023-04-08T01:38:41;97317.78;;;4.14;100.00
21361;BME280;10839;43.206;23.550;2023-04-08T01:41:10;97330.63;;;4.36;100.00
21361;BME280;10839;43.206;23.550;2023-04-08T01:43:39;97323.97;;;4.32;100.00
21361;BME280;10839;43.206;23.550;2023-04-08T01:46:07;97331.19;;;4.22;100.00
21361;BME280;10839;43.206;23.550;2023-04-08T01:48:35;97337.84;;;4.26;100.00
21361;BME280;10839;43.206;23.550;2023-04-08T01:51:04;97338.41;;;4.30;100.00
21361;BME280;10839;43.206;23.550;2023-04-08T01:53:30;97334.22;;;4.27;100.00
21361;BME280;10839;43.206;23.550;2023-04-08T01:56:01;97342.19;;;4.10;100.00
21361;BME280;10839;43.206;23.550;2023-04-08T01:58:35;97342.38;;;4.43;100.00
21361;BME280;10839;43.206;23.550;2023-04-08T02:01:20;97337.34;;;4.40;100.00
21361;BME280;10839;43.206;23.550;2023-04-08T02:03:50;97341.75;;;4.49;100.00
21361;BME280;10839;43.206;23.550;2023-04-08T02:06:25;97351.03;;;4.45;100.00
21361;BME280;10839;43.206;23.550;2023-04-08T02:08:53;97348.75;;;4.50;100.00
21361;BME280;10839;43.206;23.550;2023-04-08T02:11:20;97350.59;;;4.32;100.00
21361;BME280;10839;43.206;23.550;2023-04-08T02:13:46;97340.75;;;4.33;100.00
21361;BME280;10839;43.206;23.550;2023-04-08T02:16:17;97363.44;;;4.37;100.00
21361;BME280;10839;43.206;23.550;2023-04-08T02:19:09;97349.06;;;4.30;100.00
21361;BME280;10839;43.206;23.550;2023-04-08T02:21:43;97349.44;;;4.17;100.00
21361;BME280;10839;43.206;23.550;2023-04-08T02:24:13;97361.78;;;4.36;100.00
21361;BME280;10839;43.206;23.550;2023-04-08T02:26:42;97353.03;;;4.43;100.00
21361;BME280;10839;43.206;23.550;2023-04-08T02:29:12;97372.78;;;4.23;100.00
21361;BME280;10839;43.206;23.550;2023-04-08T02:31:41;97363.13;;;4.22;100.00
21361;BME280;10839;43.206;23.550;2023-04-08T02:34:09;97360.47;;;4.22;100.00
21361;BME280;10839;43.206;23.550;2023-04-08T02:36:35;97364.72;;;4.15;100.00
21361;BME280;10839;43.206;23.550;2023-04-08T02:39:02;97361.81;;;4.26;100.00
21361;BME280;10839;43.206;23.550;2023-04-08T02:41:28;97363.97;;;4.40;100.00
21361;BME280;10839;43.206;23.550;2023-04-08T02:43:55;97358.66;;;4.40;100.00
21361;BME280;10839;43.206;23.550;2023-04-08T02:46:21;97361.06;;;4.16;100.00
21361;BME280;10839;43.206;23.550;2023-04-08T02:48:46;97366.34;;;4.26;100.00
21361;BME280;10839;43.206;23.550;2023-04-08T02:51:14;97358.94;;;4.20;100.00
21361;BME280;10839;43.206;23.550;2023-04-08T02:53:40;97369.75;;;4.18;100.00
21361;BME280;10839;43.206;23.550;2023-04-08T02:56:08;97371.66;;;4.26;100.00
21361;BME280;10839;43.206;23.550;2023-04-08T02:58:34;97370.44;;;4.38;100.00
21361;BME280;10839;43.206;23.550;2023-04-08T03:01:00;97374.28;;;4.08;100.00
21361;BME280;10839;43.206;23.550;2023-04-08T03:03:26;97371.13;;;4.22;100.00
21361;BME280;10839;43.206;23.550;2023-04-08T03:05:54;97370.19;;;4.31;100.00
21361;BME280;10839;43.206;23.550;2023-04-08T03:08:21;97368.16;;;4.25;100.00
21361;BME280;10839;43.206;23.550;2023-04-08T03:10:47;97357.56;;;4.33;100.00
21361;BME280;10839;43.206;23.550;2023-04-08T03:13:14;97372.78;;;4.23;100.00
21361;BME280;10839;43.206;23.550;2023-04-08T03:15:40;97354.06;;;4.15;100.00
21361;BME280;10839;43.206;23.550;2023-04-08T03:18:06;97359.69;;;4.12;100.00
21361;BME280;10839;43.206;23.550;2023-04-08T03:20:32;97366.84;;;4.29;100.00
21361;BME280;10839;43.206;23.550;2023-04-08T03:22:58;97358.66;;;4.40;100.00
21361;BME280;10839;43.206;23.550;2023-04-08T03:25:23;97359.34;;;4.42;100.00
21361;BME280;10839;43.206;23.550;2023-04-08T03:27:49;97361.53;;;4.29;100.00
21361;BME280;10839;43.206;23.550;2023-04-08T03:30:15;97349.72;;;4.49;100.00
21361;BME280;10839;43.206;23.550;2023-04-08T03:32:41;97356.50;;;4.26;100.00
21361;BME280;10839;43.206;23.550;2023-04-08T03:35:07;97364.19;;;4.29;100.00
21361;BME280;10839;43.206;23.550;2023-04-08T03:37:33;97364.53;;;4.44;100.00
21361;BME280;10839;43.206;23.550;2023-04-08T03:39:59;97354.41;;;4.47;100.00
21361;BME280;10839;43.206;23.550;2023-04-08T03:42:25;97362.81;;;4.43;100.00
21361;BME280;10839;43.206;23.550;2023-04-08T03:44:51;97362.09;;;4.50;100.00
21361;BME280;10839;43.206;23.550;2023-04-08T03:47:17;97363.06;;;4.49;100.00
21361;BME280;10839;43.206;23.550;2023-04-08T03:49:43;97351.34;;;4.42;100.00
21361;BME280;10839;43.206;23.550;2023-04-08T03:52:09;97358.09;;;4.54;100.00
21361;BME280;10839;43.206;23.550;2023-04-08T03:54:35;97363.81;;;4.59;100.00
21361;BME280;10839;43.206;23.550;2023-04-08T03:57:01;97362.47;;;4.55;100.00
21361;BME280;10839;43.206;23.550;2023-04-08T03:59:27;97367.34;;;4.42;100.00
21361;BME280;10839;43.206;23.550;2023-04-08T04:01:53;97376.63;;;4.56;100.00
21361;BME280;10839;43.206;23.550;2023-04-08T04:04:18;97374.47;;;4.59;100.00
21361;BME280;10839;43.206;23.550;2023-04-08T04:06:44;97371.66;;;4.43;100.00
21361;BME280;10839;43.206;23.550;2023-04-08T04:09:10;97375.78;;;4.55;100.00
21361;BME280;10839;43.206;23.550;2023-04-08T04:11:36;97373.72;;;4.49;100.00
21361;BME280;10839;43.206;23.550;2023-04-08T04:14:02;97367.25;;;4.52;100.00
21361;BME280;10839;43.206;23.550;2023-04-08T04:16:28;97380.09;;;4.56;100.00
21361;BME280;10839;43.206;23.550;2023-04-08T04:18:54;97371.91;;;4.67;100.00
21361;BME280;10839;43.206;23.550;2023-04-08T04:21:20;97370.47;;;4.55;100.00
21361;BME280;10839;43.206;23.550;2023-04-08T04:23:45;97365.34;;;4.44;100.00
21361;BME280;10839;43.206;23.550;2023-04-08T04:26:11;97378.75;;;4.52;100.00
21361;BME280;10839;43.206;23.550;2023-04-08T04:28:37;97368.09;;;4.52;100.00
21361;BME280;10839;43.206;23.550;2023-04-08T04:31:03;97368.16;;;4.43;100.00
21361;BME280;10839;43.206;23.550;2023-04-08T04:33:30;97373.72;;;4.49;100.00
21361;BME280;10839;43.206;23.550;2023-04-08T04:35:56;97372.81;;;4.58;100.00
21361;BME280;10839;43.206;23.550;2023-04-08T04:38:22;97375.69;;;4.65;100.00
21361;BME280;10839;43.206;23.550;2023-04-08T04:40:48;97378.75;;;4.52;100.00
21361;BME280;10839;43.206;23.550;2023-04-08T04:43:13;97368.91;;;4.53;100.00
21361;BME280;10839;43.206;23.550;2023-04-08T04:45:39;97377.53;;;4.64;100.00
21361;BME280;10839;43.206;23.550;2023-04-08T04:48:05;97367.47;;;4.58;100.00
21361;BME280;10839;43.206;23.550;2023-04-08T04:50:31;97373.53;;;5.03;100.00
21361;BME280;10839;43.206;23.550;2023-04-08T04:52:57;97379.34;;;4.81;100.00
21361;BME280;10839;43.206;23.550;2023-04-08T04:55:23;97376.06;;;4.70;100.00
21361;BME280;10839;43.206;23.550;2023-04-08T04:57:49;97369.91;;;4.69;100.00
21361;BME280;10839;43.206;23.550;2023-04-08T05:00:15;97372.25;;;4.90;100.00
21361;BME280;10839;43.206;23.550;2023-04-08T05:02:41;97379.19;;;5.00;100.00
21361;BME280;10839;43.206;23.550;2023-04-08T05:05:07;97386.66;;;4.79;100.00
21361;BME280;10839;43.206;23.550;2023-04-08T05:07:37;97388.47;;;4.96;100.00
21361;BME280;10839;43.206;23.550;2023-04-08T05:10:04;97379.78;;;4.94;100.00
21361;BME280;10839;43.206;23.550;2023-04-08T05:12:30;97385.75;;;4.88;100.00
21361;BME280;10839;43.206;23.550;2023-04-08T05:14:59;97386.81;;;4.95;100.00
21361;BME280;10839;43.206;23.550;2023-04-08T05:17:25;97388.41;;;4.88;100.00
21361;BME280;10839;43.206;23.550;2023-04-08T05:19:51;97387.47;;;4.97;100.00
21361;BME280;10839;43.206;23.550;2023-04-08T05:22:18;97381.63;;;4.94;100.00
21361;BME280;10839;43.206;23.550;2023-04-08T05:24:44;97385.63;;;5.15;100.00
21361;BME280;10839;43.206;23.550;2023-04-08T05:27:09;97392.78;;;5.15;100.00
21361;BME280;10839;43.206;23.550;2023-04-08T05:29:35;97399.03;;;5.06;100.00
21361;BME280;10839;43.206;23.550;2023-04-08T05:32:01;97393.00;;;5.21;100.00
21361;BME280;10839;43.206;23.550;2023-04-08T05:34:27;97401.53;;;5.51;100.00
21361;BME280;10839;43.206;23.550;2023-04-08T05:36:52;97404.09;;;5.35;100.00
21361;BME280;10839;43.206;23.550;2023-04-08T05:39:18;97411.34;;;5.24;100.00
21361;BME280;10839;43.206;23.550;2023-04-08T05:41:45;97409.53;;;5.51;100.00
21361;BME280;10839;43.206;23.550;2023-04-08T05:44:11;97401.16;;;5.46;100.00
21361;BME280;10839;43.206;23.550;2023-04-08T05:46:38;97410.06;;;5.54;100.00
21361;BME280;10839;43.206;23.550;2023-04-08T05:49:05;97401.78;;;5.65;100.00
21361;BME280;10839;43.206;23.550;2023-04-08T05:51:30;97388.50;;;6.07;99.45
21361;BME280;10839;43.206;23.550;2023-04-08T05:53:56;97395.81;;;5.97;98.99
21361;BME280;10839;43.206;23.550;2023-04-08T05:56:22;97403.91;;;6.21;98.22
21361;BME280;10839;43.206;23.550;2023-04-08T05:58:48;97398.31;;;6.48;95.84
21361;BME280;10839;43.206;23.550;2023-04-08T06:01:14;97395.13;;;6.44;94.01
21361;BME280;10839;43.206;23.550;2023-04-08T06:03:40;97391.50;;;6.62;93.37
21361;BME280;10839;43.206;23.550;2023-04-08T06:06:10;97395.03;;;6.70;91.30
21361;BME280;10839;43.206;23.550;2023-04-08T06:08:36;97394.84;;;6.64;92.80
21361;BME280;10839;43.206;23.550;2023-04-08T06:11:02;97398.72;;;7.01;90.90
21361;BME280;10839;43.206;23.550;2023-04-08T06:13:31;97403.72;;;7.52;87.79
21361;BME280;10839;43.206;23.550;2023-04-08T06:15:57;97403.06;;;7.26;88.67
21361;BME280;10839;43.206;23.550;2023-04-08T06:18:23;97392.53;;;7.25;89.89
21361;BME280;10839;43.206;23.550;2023-04-08T06:20:49;97396.69;;;7.51;87.80
21361;BME280;10839;43.206;23.550;2023-04-08T06:23:16;97407.91;;;7.55;86.85
21361;BME280;10839;43.206;23.550;2023-04-08T06:25:42;97405.41;;;7.37;86.38
21361;BME280;10839;43.206;23.550;2023-04-08T06:28:07;97421.47;;;7.37;87.44
21361;BME280;10839;43.206;23.550;2023-04-08T06:30:33;97414.00;;;7.88;84.69
21361;BME280;10839;43.206;23.550;2023-04-08T06:32:59;97419.44;;;7.55;83.52
21361;BME280;10839;43.206;23.550;2023-04-08T06:35:25;97412.41;;;7.62;84.02
21361;BME280;10839;43.206;23.550;2023-04-08T06:37:51;97407.75;;;7.48;83.87
21361;BME280;10839;43.206;23.550;2023-04-08T06:40:17;97409.78;;;8.01;82.28
21361;BME280;10839;43.206;23.550;2023-04-08T06:42:43;97415.03;;;7.78;82.35
21361;BME280;10839;43.206;23.550;2023-04-08T06:45:28;97420.63;;;8.16;81.26
21361;BME280;10839;43.206;23.550;2023-04-08T06:47:53;97424.84;;;8.49;80.83
21361;BME280;10839;43.206;23.550;2023-04-08T06:50:21;97427.06;;;8.76;78.32
21361;BME280;10839;43.206;23.550;2023-04-08T06:52:46;97413.22;;;8.64;78.56
21361;BME280;10839;43.206;23.550;2023-04-08T06:55:12;97422.75;;;9.57;74.85
21361;BME280;10839;43.206;23.550;2023-04-08T06:57:38;97428.13;;;10.09;72.75
21361;BME280;10839;43.206;23.550;2023-04-08T07:00:04;97423.53;;;9.43;72.53
21361;BME280;10839;43.206;23.550;2023-04-08T07:02:31;97429.06;;;9.64;73.58
21361;BME280;10839;43.206;23.550;2023-04-08T07:04:57;97429.38;;;10.57;69.09
21361;BME280;10839;43.206;23.550;2023-04-08T07:07:23;97424.66;;;10.59;66.68
21361;BME280;10839;43.206;23.550;2023-04-08T07:09:49;97430.50;;;10.04;69.16
21361;BME280;10839;43.206;23.550;2023-04-08T07:12:16;97435.81;;;10.56;66.78
21361;BME280;10839;43.206;23.550;2023-04-08T07:14:42;97430.13;;;11.01;65.61
21361;BME280;10839;43.206;23.550;2023-04-08T07:17:07;97437.31;;;10.14;63.65
21361;BME280;10839;43.206;23.550;2023-04-08T07:19:33;97445.41;;;10.06;64.95
21361;BME280;10839;43.206;23.550;2023-04-08T07:21:59;97446.16;;;10.88;62.08
21361;BME280;10839;43.206;23.550;2023-04-08T07:24:25;97444.06;;;10.90;61.00
21361;BME280;10839;43.206;23.550;2023-04-08T07:26:51;97451.88;;;10.20;61.55
21361;BME280;10839;43.206;23.550;2023-04-08T07:29:17;97440.59;;;9.87;62.33
21361;BME280;10839;43.206;23.550;2023-04-08T07:31:43;97440.66;;;10.46;61.10
21361;BME280;10839;43.206;23.550;2023-04-08T07:34:09;97443.09;;;11.12;59.55
21361;BME280;10839;43.206;23.550;2023-04-08T07:36:35;97450.69;;;10.22;61.77
21361;BME280;10839;43.206;23.550;2023-04-08T07:39:02;97447.13;;;10.37;61.60
21361;BME280;10839;43.206;23.550;2023-04-08T07:41:28;97444.91;;;11.26;60.75
21361;BME280;10839;43.206;23.550;2023-04-08T07:43:54;97448.75;;;11.17;59.78
21361;BME280;10839;43.206;23.550;2023-04-08T07:46:20;97447.94;;;10.52;61.36
21361;BME280;10839;43.206;23.550;2023-04-08T07:48:46;97449.69;;;10.74;60.45
21361;BME280;10839;43.206;23.550;2023-04-08T07:51:12;97458.09;;;10.20;63.51
21361;BME280;10839;43.206;23.550;2023-04-08T07:53:38;97457.03;;;9.33;67.90
21361;BME280;10839;43.206;23.550;2023-04-08T07:56:12;97461.78;;;9.45;68.58
21361;BME280;10839;43.206;23.550;2023-04-08T07:58:39;97464.94;;;9.71;67.16
21361;BME280;10839;43.206;23.550;2023-04-08T08:01:19;97463.41;;;9.91;68.23
21361;BME280;10839;43.206;23.550;2023-04-08T08:03:49;97462.66;;;9.97;68.23
21361;BME280;10839;43.206;23.550;2023-04-08T08:06:16;97471.19;;;9.86;67.39
21361;BME280;10839;43.206;23.550;2023-04-08T08:08:42;97468.97;;;9.53;68.36
21361;BME280;10839;43.206;23.550;2023-04-08T08:11:07;97461.03;;;9.59;68.27
21361;BME280;10839;43.206;23.550;2023-04-08T08:13:33;97471.88;;;10.03;66.98
21361;BME280;10839;43.206;23.550;2023-04-08T08:15:59;97465.81;;;9.49;66.55
21361;BME280;10839;43.206;23.550;2023-04-08T08:18:25;97471.59;;;9.38;67.78
21361;BME280;10839;43.206;23.550;2023-04-08T08:20:51;97470.88;;;9.44;67.03
21361;BME280;10839;43.206;23.550;2023-04-08T08:23:17;97478.63;;;9.39;66.49
21361;BME280;10839;43.206;23.550;2023-04-08T08:25:42;97478.06;;;10.03;65.48
21361;BME280;10839;43.206;23.550;2023-04-08T08:28:09;97489.69;;;10.18;62.87
21361;BME280;10839;43.206;23.550;2023-04-08T08:30:35;97478.06;;;10.03;63.34
21361;BME280;10839;43.206;23.550;2023-04-08T08:33:01;97478.66;;;10.13;61.96
21361;BME280;10839;43.206;23.550;2023-04-08T08:35:26;97488.69;;;9.82;61.74
21361;BME280;10839;43.206;23.550;2023-04-08T08:37:52;97476.59;;;9.64;62.60
21361;BME280;10839;43.206;23.550;2023-04-08T08:40:18;97475.63;;;9.79;61.82
21361;BME280;10839;43.206;23.550;2023-04-08T08:42:51;97478.88;;;10.41;60.74
21361;BME280;10839;43.206;23.550;2023-04-08T08:45:18;97475.44;;;9.95;60.03
21361;BME280;10839;43.206;23.550;2023-04-08T08:47:45;97481.66;;;9.81;60.89
21361;BME280;10839;43.206;23.550;2023-04-08T08:50:11;97482.00;;;10.15;60.48
21361;BME280;10839;43.206;23.550;2023-04-08T08:52:37;97491.09;;;10.73;58.87
21361;BME280;10839;43.206;23.550;2023-04-08T08:55:03;97486.13;;;11.26;57.35
21361;BME280;10839;43.206;23.550;2023-04-08T08:57:29;97481.91;;;10.38;58.38
21361;BME280;10839;43.206;23.550;2023-04-08T08:59:55;97486.50;;;11.02;57.57
21361;BME280;10839;43.206;23.550;2023-04-08T09:02:30;97489.03;;;10.75;57.47
21361;BME280;10839;43.206;23.550;2023-04-08T09:05:01;97481.59;;;10.77;57.09
21361;BME280;10839;43.206;23.550;2023-04-08T09:07:29;97491.31;;;11.28;57.04
21361;BME280;10839;43.206;23.550;2023-04-08T09:09:57;97489.31;;;12.21;55.39
21361;BME280;10839;43.206;23.550;2023-04-08T09:12:24;97491.88;;;11.80;54.54
21361;BME280;10839;43.206;23.550;2023-04-08T09:15:04;97494.06;;;11.49;55.94
21361;BME280;10839;43.206;23.550;2023-04-08T09:17:38;97497.78;;;11.90;55.57
21361;BME280;10839;43.206;23.550;2023-04-08T09:20:10;97490.28;;;11.86;55.44
21361;BME280;10839;43.206;23.550;2023-04-08T09:22:56;97496.22;;;11.39;55.52
21361;BME280;10839;43.206;23.550;2023-04-08T09:25:27;97493.91;;;11.36;55.31
21361;BME280;10839;43.206;23.550;2023-04-08T09:27:53;97489.19;;;11.59;54.89
21361;BME280;10839;43.206;23.550;2023-04-08T09:30:24;97496.97;;;11.69;55.38
21361;BME280;10839;43.206;23.550;2023-04-08T09:32:52;97487.00;;;11.90;54.67
21361;BME280;10839;43.206;23.550;2023-04-08T09:35:19;97494.13;;;12.59;53.14
21361;BME280;10839;43.206;23.550;2023-04-08T09:37:46;97495.00;;;12.66;52.92
21361;BME280;10839;43.206;23.550;2023-04-08T09:40:13;97501.00;;;13.03;50.72
21361;BME280;10839;43.206;23.550;2023-04-08T09:42:44;97501.56;;;11.96;53.86
21361;BME280;10839;43.206;23.550;2023-04-08T09:45:14;97498.03;;;12.23;54.14
21361;BME280;10839;43.206;23.550;2023-04-08T09:50:19;97492.25;;;11.56;55.87
21361;BME280;10839;43.206;23.550;2023-04-08T09:52:52;97488.94;;;11.75;55.17
21361;BME280;10839;43.206;23.550;2023-04-08T09:55:21;97486.03;;;11.77;55.54
21361;BME280;10839;43.206;23.550;2023-04-08T10:00:46;97482.16;;;12.07;54.22
21361;BME280;10839;43.206;23.550;2023-04-08T10:06:02;97486.69;;;12.06;54.27
21361;BME280;10839;43.206;23.550;2023-04-08T10:08:29;97483.78;;;11.80;55.63
21361;BME280;10839;43.206;23.550;2023-04-08T10:10:57;97484.44;;;12.10;54.55
21361;BME280;10839;43.206;23.550;2023-04-08T10:13:23;97483.34;;;12.66;53.62
21361;BME280;10839;43.206;23.550;2023-04-08T10:15:50;97473.63;;;12.31;53.38
21361;BME280;10839;43.206;23.550;2023-04-08T10:18:36;97471.97;;;11.81;55.46
21361;BME280;10839;43.206;23.550;2023-04-08T10:21:02;97472.50;;;12.19;54.51
21361;BME280;10839;43.206;23.550;2023-04-08T10:23:55;97479.81;;;12.31;53.93
21361;BME280;10839;43.206;23.550;2023-04-08T10:26:42;97474.56;;;11.89;55.34
21361;BME280;10839;43.206;23.550;2023-04-08T10:31:50;97475.72;;;12.35;53.48
21361;BME280;10839;43.206;23.550;2023-04-08T10:34:19;97480.44;;;11.99;54.18
21361;BME280;10839;43.206;23.550;2023-04-08T10:36:46;97471.06;;;11.53;55.62
21361;BME280;10839;43.206;23.550;2023-04-08T10:39:14;97474.56;;;11.89;55.47
21361;BME280;10839;43.206;23.550;2023-04-08T10:41:43;97475.94;;;11.43;56.36
21361;BME280;10839;43.206;23.550;2023-04-08T10:44:24;97460.78;;;11.63;56.21
21361;BME280;10839;43.206;23.550;2023-04-08T10:46:52;97465.41;;;11.90;55.61
21361;BME280;10839;43.206;23.550;2023-04-08T10:49:18;97459.09;;;11.77;55.51
21361;BME280;10839;43.206;23.550;2023-04-08T10:51:45;97459.47;;;12.01;55.49
21361;BME280;10839;43.206;23.550;2023-04-08T10:54:13;97469.59;;;12.54;53.88
21361;BME280;10839;43.206;23.550;2023-04-08T10:56:45;97458.94;;;12.80;53.25
21361;BME280;10839;43.206;23.550;2023-04-08T10:59:12;97456.50;;;12.17;53.97
21361;BME280;10839;43.206;23.550;2023-04-08T11:01:43;97460.84;;;13.60;50.94
21361;BME280;10839;43.206;23.550;2023-04-08T11:04:17;97445.47;;;13.80;50.25
21361;BME280;10839;43.206;23.550;2023-04-08T11:06:45;97444.22;;;13.82;49.10
21361;BME280;10839;43.206;23.550;2023-04-08T11:09:13;97436.72;;;14.17;49.40
21361;BME280;10839;43.206;23.550;2023-04-08T11:11:44;97435.69;;;15.32;46.17
21361;BME280;10839;43.206;23.550;2023-04-08T11:14:11;97435.47;;;15.34;46.05
21361;BME280;10839;43.206;23.550;2023-04-08T11:16:38;97440.84;;;14.52;45.86
21361;BME280;10839;43.206;23.550;2023-04-08T11:19:05;97422.66;;;14.66;46.00
21361;BME280;10839;43.206;23.550;2023-04-08T11:21:34;97424.75;;;15.14;44.94
21361;BME280;10839;43.206;23.550;2023-04-08T11:24:05;97434.66;;;13.60;48.18
21361;BME280;10839;43.206;23.550;2023-04-08T11:26:31;97429.25;;;13.80;48.98
21361;BME280;10839;43.206;23.550;2023-04-08T11:28:58;97424.66;;;14.26;47.11
21361;BME280;10839;43.206;23.550;2023-04-08T11:31:26;97417.50;;;14.51;47.32
21361;BME280;10839;43.206;23.550;2023-04-08T11:33:53;97433.19;;;14.93;45.17
21361;BME280;10839;43.206;23.550;2023-04-08T11:36:21;97422.16;;;14.11;47.11
21361;BME280;10839;43.206;23.550;2023-04-08T11:38:47;97422.72;;;13.16;49.98
21361;BME280;10839;43.206;23.550;2023-04-08T11:41:13;97414.81;;;12.60;51.74
21361;BME280;10839;43.206;23.550;2023-04-08T11:43:38;97414.09;;;12.93;50.91
21361;BME280;10839;43.206;23.550;2023-04-08T11:46:15;97410.88;;;13.23;49.21
21361;BME280;10839;43.206;23.550;2023-04-08T11:51:24;97415.63;;;12.61;50.98
21361;BME280;10839;43.206;23.550;2023-04-08T11:53:51;97398.28;;;12.89;50.47
21361;BME280;10839;43.206;23.550;2023-04-08T11:56:19;97409.47;;;12.73;50.64
21361;BME280;10839;43.206;23.550;2023-04-08T11:58:46;97408.81;;;12.71;51.48
21361;BME280;10839;43.206;23.550;2023-04-08T12:01:12;97399.22;;;13.10;50.71
21361;BME280;10839;43.206;23.550;2023-04-08T12:03:39;97399.25;;;13.29;50.02
21361;BME280;10839;43.206;23.550;2023-04-08T12:06:17;97396.38;;;13.44;50.38
21361;BME280;10839;43.206;23.550;2023-04-08T12:08:43;97399.06;;;13.83;48.97
21361;BME280;10839;43.206;23.550;2023-04-08T12:11:09;97388.88;;;13.85;49.27
21361;BME280;10839;43.206;23.550;2023-04-08T12:13:36;97390.97;;;13.76;49.00
21361;BME280;10839;43.206;23.550;2023-04-08T12:16:02;97383.22;;;14.06;48.82
21361;BME280;10839;43.206;23.550;2023-04-08T12:18:28;97388.81;;;14.11;48.67
21361;BME280;10839;43.206;23.550;2023-04-08T12:20:54;97386.38;;;13.77;49.97
21361;BME280;10839;43.206;23.550;2023-04-08T12:23:20;97385.53;;;13.96;49.87
21361;BME280;10839;43.206;23.550;2023-04-08T12:25:45;97389.28;;;13.95;49.59
21361;BME280;10839;43.206;23.550;2023-04-08T12:28:11;97388.03;;;13.65;50.70
21361;BME280;10839;43.206;23.550;2023-04-08T12:30:37;97388.88;;;13.72;50.95
21361;BME280;10839;43.206;23.550;2023-04-08T12:33:03;97382.22;;;13.68;51.08
21361;BME280;10839;43.206;23.550;2023-04-08T12:35:29;97379.09;;;13.58;51.37
21361;BME280;10839;43.206;23.550;2023-04-08T12:37:55;97379.72;;;13.60;51.53
21361;BME280;10839;43.206;23.550;2023-04-08T12:40:21;97381.59;;;13.59;51.38
21361;BME280;10839;43.206;23.550;2023-04-08T12:42:47;97383.44;;;13.26;53.13
21361;BME280;10839;43.206;23.550;2023-04-08T12:45:13;97369.91;;;13.20;54.08
21361;BME280;10839;43.206;23.550;2023-04-08T12:47:38;97374.94;;;13.36;54.12
21361;BME280;10839;43.206;23.550;2023-04-08T12:50:04;97367.13;;;12.80;54.80
21361;BME280;10839;43.206;23.550;2023-04-08T12:52:31;97371.91;;;12.38;56.47
21361;BME280;10839;43.206;23.550;2023-04-08T12:54:57;97378.16;;;12.38;56.54
21361;BME280;10839;43.206;23.550;2023-04-08T12:57:23;97372.63;;;12.12;57.63
21361;BME280;10839;43.206;23.550;2023-04-08T12:59:49;97385.56;;;11.89;59.06
21361;BME280;10839;43.206;23.550;2023-04-08T13:02:15;97377.06;;;11.92;59.34
21361;BME280;10839;43.206;23.550;2023-04-08T13:04:41;97369.97;;;12.19;59.31
21361;BME280;10839;43.206;23.550;2023-04-08T13:07:07;97378.25;;;11.83;63.49
21361;BME280;10839;43.206;23.550;2023-04-08T13:09:32;97382.13;;;11.53;66.42